sensor_id;sensor_type;location;lat;lon;timestamp;P1;durP1;ratioP1;P2;durP2;ratioP2
23159;SDS011;11748;50.844;4.396;2024-03-17T00:00:37;8.45;;;5.30;;
23159;SDS011;11748;50.844;4.396;2024-03-17T00:03:05;9.02;;;5.45;;
23159;SDS011;11748;50.844;4.396;2024-03-17T00:05:33;5.75;;;4.50;;
23159;SDS011;11748;50.844;4.396;2024-03-17T00:07:59;7.25;;;4.88;;
23159;SDS011;11748;50.844;4.396;2024-03-17T00:10:24;7.22;;;5.10;;
23159;SDS011;11748;50.844;4.396;2024-03-17T00:12:50;10.73;;;5.25;;
23159;SDS011;11748;50.844;4.396;2024-03-17T00:15:16;8.65;;;5.22;;
23159;SDS011;11748;50.844;4.396;2024-03-17T00:17:42;9.77;;;5.05;;
23159;SDS011;11748;50.844;4.396;2024-03-17T00:20:07;7.47;;;5.13;;
23159;SDS011;11748;50.844;4.396;2024-03-17T00:22:39;7.65;;;5.18;;
23159;SDS011;11748;50.844;4.396;2024-03-17T00:25:06;6.70;;;4.90;;
23159;SDS011;11748;50.844;4.396;2024-03-17T00:27:33;9.40;;;4.72;;
23159;SDS011;11748;50.844;4.396;2024-03-17T00:30:00;10.85;;;5.53;;
23159;SDS011;11748;50.844;4.396;2024-03-17T00:32:27;7.32;;;4.63;;
23159;SDS011;11748;50.844;4.396;2024-03-17T00:34:52;7.80;;;4.85;;
23159;SDS011;11748;50.844;4.396;2024-03-17T00:37:18;6.38;;;4.35;;
23159;SDS011;11748;50.844;4.396;2024-03-17T00:39:44;10.70;;;4.72;;
23159;SDS011;11748;50.844;4.396;2024-03-17T00:42:09;6.85;;;4.93;;
23159;SDS011;11748;50.844;4.396;2024-03-17T00:44:35;5.72;;;4.65;;
23159;SDS011;11748;50.844;4.396;2024-03-17T00:47:00;7.10;;;4.57;;
23159;SDS011;11748;50.844;4.396;2024-03-17T00:49:26;5.95;;;4.28;;
23159;SDS011;11748;50.844;4.396;2024-03-17T00:51:52;7.90;;;4.82;;
23159;SDS011;11748;50.844;4.396;2024-03-17T00:54:17;6.18;;;4.60;;
23159;SDS011;11748;50.844;4.396;2024-03-17T00:56:43;8.57;;;5.35;;
23159;SDS011;11748;50.844;4.396;2024-03-17T00:59:09;6.28;;;4.30;;
23159;SDS011;11748;50.844;4.396;2024-03-17T01:01:34;7.35;;;4.28;;
23159;SDS011;11748;50.844;4.396;2024-03-17T01:04:00;6.65;;;4.40;;
23159;SDS011;11748;50.844;4.396;2024-03-17T01:06:26;8.73;;;4.45;;
23159;SDS011;11748;50.844;4.396;2024-03-17T01:08:51;6.35;;;4.75;;
23159;SDS011;11748;50.844;4.396;2024-03-17T01:11:17;8.15;;;4.60;;
23159;SDS011;11748;50.844;4.396;2024-03-17T01:13:44;5.75;;;4.30;;
23159;SDS011;11748;50.844;4.396;2024-03-17T01:16:15;6.85;;;3.55;;
23159;SDS011;11748;50.844;4.396;2024-03-17T01:18:41;7.30;;;4.07;;
23159;SDS011;11748;50.844;4.396;2024-03-17T01:21:08;8.75;;;4.90;;
23159;SDS011;11748;50.844;4.396;2024-03-17T01:23:34;6.05;;;3.83;;
23159;SDS011;11748;50.844;4.396;2024-03-17T01:25:59;5.85;;;4.30;;
23159;SDS011;11748;50.844;4.396;2024-03-17T01:28:25;7.68;;;4.38;;
23159;SDS011;11748;50.844;4.396;2024-03-17T01:30:52;8.02;;;4.43;;
23159;SDS011;11748;50.844;4.396;2024-03-17T01:33:17;8.82;;;4.38;;
23159;SDS011;11748;50.844;4.396;2024-03-17T01:35:43;7.68;;;4.20;;
23159;SDS011;11748;50.844;4.396;2024-03-17T01:38:09;8.05;;;4.60;;
23159;SDS011;11748;50.844;4.396;2024-03-17T01:40:37;6.18;;;4.13;;
23159;SDS011;11748;50.844;4.396;2024-03-17T01:43:03;7.00;;;3.97;;
23159;SDS011;11748;50.844;4.396;2024-03-17T01:45:29;9.13;;;4.65;;
23159;SDS011;11748;50.844;4.396;2024-03-17T01:47:57;7.75;;;4.38;;
23159;SDS011;11748;50.844;4.396;2024-03-17T01:50:31;6.32;;;4.25;;
23159;SDS011;11748;50.844;4.396;2024-03-17T01:53:00;10.55;;;5.55;;
23159;SDS011;11748;50.844;4.396;2024-03-17T01:55:29;12.30;;;4.82;;
23159;SDS011;11748;50.844;4.396;2024-03-17T01:57:56;7.97;;;4.82;;
23159;SDS011;11748;50.844;4.396;2024-03-17T02:00:22;7.32;;;4.07;;
23159;SDS011;11748;50.844;4.396;2024-03-17T02:02:48;6.30;;;3.92;;
23159;SDS011;11748;50.844;4.396;2024-03-17T02:05:13;7.28;;;4.00;;
23159;SDS011;11748;50.844;4.396;2024-03-17T02:07:39;6.57;;;3.97;;
23159;SDS011;11748;50.844;4.396;2024-03-17T02:10:05;6.38;;;3.92;;
23159;SDS011;11748;50.844;4.396;2024-03-17T02:12:33;10.60;;;3.92;;
23159;SDS011;11748;50.844;4.396;2024-03-17T02:14:59;7.50;;;4.82;;
23159;SDS011;11748;50.844;4.396;2024-03-17T02:17:26;6.97;;;4.40;;
23159;SDS011;11748;50.844;4.396;2024-03-17T02:19:55;7.30;;;4.35;;
23159;SDS011;11748;50.844;4.396;2024-03-17T02:22:20;8.27;;;4.25;;
23159;SDS011;11748;50.844;4.396;2024-03-17T02:24:46;6.60;;;4.38;;
23159;SDS011;11748;50.844;4.396;2024-03-17T02:27:11;6.75;;;4.07;;
23159;SDS011;11748;50.844;4.396;2024-03-17T02:29:37;7.57;;;3.88;;
23159;SDS011;11748;50.844;4.396;2024-03-17T02:32:04;9.10;;;4.68;;
23159;SDS011;11748;50.844;4.396;2024-03-17T02:34:36;5.85;;;4.03;;
23159;SDS011;11748;50.844;4.396;2024-03-17T02:37:03;5.97;;;4.00;;
23159;SDS011;11748;50.844;4.396;2024-03-17T02:39:31;8.43;;;4.40;;
23159;SDS011;11748;50.844;4.396;2024-03-17T02:41:59;6.80;;;4.18;;
23159;SDS011;11748;50.844;4.396;2024-03-17T02:44:29;6.18;;;3.90;;
23159;SDS011;11748;50.844;4.396;2024-03-17T02:46:59;7.40;;;4.40;;
23159;SDS011;11748;50.844;4.396;2024-03-17T02:49:26;5.97;;;3.53;;
23159;SDS011;11748;50.844;4.396;2024-03-17T02:51:53;7.50;;;3.88;;
23159;SDS011;11748;50.844;4.396;2024-03-17T02:54:21;7.03;;;4.03;;
23159;SDS011;11748;50.844;4.396;2024-03-17T02:56:50;6.30;;;3.75;;
23159;SDS011;11748;50.844;4.396;2024-03-17T02:59:16;6.43;;;3.95;;
23159;SDS011;11748;50.844;4.396;2024-03-17T03:01:42;5.60;;;3.80;;
23159;SDS011;11748;50.844;4.396;2024-03-17T03:04:08;4.80;;;3.67;;
23159;SDS011;11748;50.844;4.396;2024-03-17T03:06:33;6.13;;;3.90;;
23159;SDS011;11748;50.844;4.396;2024-03-17T03:08:59;6.20;;;4.30;;
23159;SDS011;11748;50.844;4.396;2024-03-17T03:11:25;6.43;;;3.97;;
23159;SDS011;11748;50.844;4.396;2024-03-17T03:13:51;7.10;;;4.15;;
23159;SDS011;11748;50.844;4.396;2024-03-17T03:16:16;5.28;;;3.58;;
23159;SDS011;11748;50.844;4.396;2024-03-17T03:18:44;4.50;;;3.80;;
23159;SDS011;11748;50.844;4.396;2024-03-17T03:21:10;7.60;;;4.28;;
23159;SDS011;11748;50.844;4.396;2024-03-17T03:23:37;6.07;;;3.70;;
23159;SDS011;11748;50.844;4.396;2024-03-17T03:26:03;5.93;;;3.95;;
23159;SDS011;11748;50.844;4.396;2024-03-17T03:28:30;7.85;;;3.78;;
23159;SDS011;11748;50.844;4.396;2024-03-17T03:30:56;6.78;;;4.07;;
23159;SDS011;11748;50.844;4.396;2024-03-17T03:33:23;6.25;;;4.35;;
23159;SDS011;11748;50.844;4.396;2024-03-17T03:35:48;7.65;;;4.07;;
23159;SDS011;11748;50.844;4.396;2024-03-17T03:38:16;8.73;;;4.45;;
23159;SDS011;11748;50.844;4.396;2024-03-17T03:40:43;4.72;;;3.53;;
23159;SDS011;11748;50.844;4.396;2024-03-17T03:43:09;5.60;;;3.90;;
23159;SDS011;11748;50.844;4.396;2024-03-17T03:45:35;8.07;;;3.83;;
23159;SDS011;11748;50.844;4.396;2024-03-17T03:48:01;5.65;;;4.15;;
23159;SDS011;11748;50.844;4.396;2024-03-17T03:50:28;5.50;;;3.72;;
23159;SDS011;11748;50.844;4.396;2024-03-17T03:52:54;6.72;;;4.00;;
23159;SDS011;11748;50.844;4.396;2024-03-17T03:55:20;8.98;;;4.30;;
23159;SDS011;11748;50.844;4.396;2024-03-17T03:57:46;4.85;;;3.78;;
23159;SDS011;11748;50.844;4.396;2024-03-17T04:00:13;5.28;;;3.97;;
23159;SDS011;11748;50.844;4.396;2024-03-17T04:02:46;5.75;;;4.45;;
23159;SDS011;11748;50.844;4.396;2024-03-17T04:05:17;7.88;;;4.57;;
23159;SDS011;11748;50.844;4.396;2024-03-17T04:07:43;6.38;;;4.30;;
23159;SDS011;11748;50.844;4.396;2024-03-17T04:10:11;8.13;;;4.68;;
23159;SDS011;11748;50.844;4.396;2024-03-17T04:12:37;8.68;;;4.90;;
23159;SDS011;11748;50.844;4.396;2024-03-17T04:15:03;9.85;;;4.78;;
23159;SDS011;11748;50.844;4.396;2024-03-17T04:17:31;9.40;;;4.90;;
23159;SDS011;11748;50.844;4.396;2024-03-17T04:19:57;9.20;;;4.55;;
23159;SDS011;11748;50.844;4.396;2024-03-17T04:22:23;9.55;;;5.68;;
23159;SDS011;11748;50.844;4.396;2024-03-17T04:24:50;7.97;;;4.80;;
23159;SDS011;11748;50.844;4.396;2024-03-17T04:27:22;8.18;;;5.10;;
23159;SDS011;11748;50.844;4.396;2024-03-17T04:29:55;7.72;;;4.68;;
23159;SDS011;11748;50.844;4.396;2024-03-17T04:32:23;8.88;;;5.25;;
23159;SDS011;11748;50.844;4.396;2024-03-17T04:34:49;8.27;;;5.00;;
23159;SDS011;11748;50.844;4.396;2024-03-17T04:37:16;7.68;;;4.40;;
23159;SDS011;11748;50.844;4.396;2024-03-17T04:39:45;7.72;;;4.95;;
23159;SDS011;11748;50.844;4.396;2024-03-17T04:42:12;9.55;;;6.20;;
23159;SDS011;11748;50.844;4.396;2024-03-17T04:44:42;9.13;;;5.05;;
23159;SDS011;11748;50.844;4.396;2024-03-17T04:47:10;9.63;;;5.53;;
23159;SDS011;11748;50.844;4.396;2024-03-17T04:49:39;6.72;;;4.82;;
23159;SDS011;11748;50.844;4.396;2024-03-17T04:52:06;8.25;;;4.78;;
23159;SDS011;11748;50.844;4.396;2024-03-17T04:54:32;8.05;;;5.13;;
23159;SDS011;11748;50.844;4.396;2024-03-17T04:56:58;7.40;;;4.88;;
23159;SDS011;11748;50.844;4.396;2024-03-17T04:59:24;8.20;;;5.00;;
23159;SDS011;11748;50.844;4.396;2024-03-17T05:01:50;9.30;;;5.55;;
23159;SDS011;11748;50.844;4.396;2024-03-17T05:04:18;11.57;;;5.40;;
23159;SDS011;11748;50.844;4.396;2024-03-17T05:06:43;8.45;;;5.40;;
23159;SDS011;11748;50.844;4.396;2024-03-17T05:09:13;8.40;;;5.47;;
23159;SDS011;11748;50.844;4.396;2024-03-17T05:11:39;8.10;;;5.32;;
23159;SDS011;11748;50.844;4.396;2024-03-17T05:14:05;7.97;;;5.78;;
23159;SDS011;11748;50.844;4.396;2024-03-17T05:16:31;5.88;;;4.97;;
23159;SDS011;11748;50.844;4.396;2024-03-17T05:18:57;7.68;;;5.07;;
23159;SDS011;11748;50.844;4.396;2024-03-17T05:21:22;11.38;;;4.90;;
23159;SDS011;11748;50.844;4.396;2024-03-17T05:23:49;6.10;;;4.60;;
23159;SDS011;11748;50.844;4.396;2024-03-17T05:26:15;8.57;;;5.78;;
23159;SDS011;11748;50.844;4.396;2024-03-17T05:28:41;8.13;;;5.05;;
23159;SDS011;11748;50.844;4.396;2024-03-17T05:31:07;8.30;;;4.57;;
23159;SDS011;11748;50.844;4.396;2024-03-17T05:33:33;6.53;;;4.72;;
23159;SDS011;11748;50.844;4.396;2024-03-17T05:35:59;7.38;;;4.60;;
23159;SDS011;11748;50.844;4.396;2024-03-17T05:38:27;10.07;;;5.60;;
23159;SDS011;11748;50.844;4.396;2024-03-17T05:40:58;5.38;;;4.25;;
23159;SDS011;11748;50.844;4.396;2024-03-17T05:43:36;7.10;;;4.80;;
23159;SDS011;11748;50.844;4.396;2024-03-17T05:46:04;6.85;;;4.63;;
23159;SDS011;11748;50.844;4.396;2024-03-17T05:48:31;6.68;;;4.70;;
23159;SDS011;11748;50.844;4.396;2024-03-17T05:51:07;6.38;;;4.43;;
23159;SDS011;11748;50.844;4.396;2024-03-17T05:53:34;10.52;;;5.03;;
23159;SDS011;11748;50.844;4.396;2024-03-17T05:56:01;9.80;;;4.80;;
23159;SDS011;11748;50.844;4.396;2024-03-17T05:58:28;9.80;;;4.88;;
23159;SDS011;11748;50.844;4.396;2024-03-17T06:00:54;8.15;;;4.82;;
23159;SDS011;11748;50.844;4.396;2024-03-17T06:03:19;7.32;;;5.20;;
23159;SDS011;11748;50.844;4.396;2024-03-17T06:05:46;9.82;;;4.93;;
23159;SDS011;11748;50.844;4.396;2024-03-17T06:08:13;7.05;;;4.25;;
23159;SDS011;11748;50.844;4.396;2024-03-17T06:10:46;8.48;;;4.60;;
23159;SDS011;11748;50.844;4.396;2024-03-17T06:13:13;8.73;;;5.30;;
23159;SDS011;11748;50.844;4.396;2024-03-17T06:15:41;8.07;;;5.15;;
23159;SDS011;11748;50.844;4.396;2024-03-17T06:18:09;9.07;;;4.93;;
23159;SDS011;11748;50.844;4.396;2024-03-17T06:20:40;10.38;;;5.53;;
23159;SDS011;11748;50.844;4.396;2024-03-17T06:23:13;12.82;;;5.10;;
23159;SDS011;11748;50.844;4.396;2024-03-17T06:25:41;10.27;;;4.97;;
23159;SDS011;11748;50.844;4.396;2024-03-17T06:28:08;7.65;;;5.07;;
23159;SDS011;11748;50.844;4.396;2024-03-17T06:30:38;8.20;;;5.10;;
23159;SDS011;11748;50.844;4.396;2024-03-17T06:33:15;8.27;;;4.47;;
23159;SDS011;11748;50.844;4.396;2024-03-17T06:35:44;9.82;;;4.60;;
23159;SDS011;11748;50.844;4.396;2024-03-17T06:38:11;9.55;;;4.57;;
23159;SDS011;11748;50.844;4.396;2024-03-17T06:40:50;9.02;;;4.43;;
23159;SDS011;11748;50.844;4.396;2024-03-17T06:43:16;9.98;;;4.60;;
23159;SDS011;11748;50.844;4.396;2024-03-17T06:45:43;7.13;;;4.47;;
23159;SDS011;11748;50.844;4.396;2024-03-17T06:48:09;8.35;;;4.57;;
23159;SDS011;11748;50.844;4.396;2024-03-17T06:50:37;9.23;;;4.45;;
23159;SDS011;11748;50.844;4.396;2024-03-17T06:53:06;8.50;;;4.10;;
23159;SDS011;11748;50.844;4.396;2024-03-17T06:55:32;6.97;;;4.25;;
23159;SDS011;11748;50.844;4.396;2024-03-17T06:57:58;10.10;;;4.32;;
23159;SDS011;11748;50.844;4.396;2024-03-17T07:00:25;9.05;;;4.75;;
23159;SDS011;11748;50.844;4.396;2024-03-17T07:02:51;8.82;;;4.50;;
23159;SDS011;11748;50.844;4.396;2024-03-17T07:05:16;7.50;;;4.10;;
23159;SDS011;11748;50.844;4.396;2024-03-17T07:07:43;5.68;;;3.90;;
23159;SDS011;11748;50.844;4.396;2024-03-17T07:10:11;7.68;;;4.63;;
23159;SDS011;11748;50.844;4.396;2024-03-17T07:12:39;7.78;;;4.55;;
23159;SDS011;11748;50.844;4.396;2024-03-17T07:15:06;5.65;;;4.15;;
23159;SDS011;11748;50.844;4.396;2024-03-17T07:17:32;6.70;;;4.20;;
23159;SDS011;11748;50.844;4.396;2024-03-17T07:19:58;7.10;;;3.83;;
23159;SDS011;11748;50.844;4.396;2024-03-17T07:24:55;7.72;;;3.67;;
23159;SDS011;11748;50.844;4.396;2024-03-17T07:27:29;6.68;;;3.90;;
23159;SDS011;11748;50.844;4.396;2024-03-17T07:29:56;5.53;;;4.03;;
23159;SDS011;11748;50.844;4.396;2024-03-17T07:32:21;6.43;;;4.15;;
23159;SDS011;11748;50.844;4.396;2024-03-17T07:34:49;5.82;;;4.10;;
23159;SDS011;11748;50.844;4.396;2024-03-17T07:37:15;4.47;;;3.65;;
23159;SDS011;11748;50.844;4.396;2024-03-17T07:39:43;7.07;;;3.83;;
23159;SDS011;11748;50.844;4.396;2024-03-17T07:42:09;4.40;;;3.50;;
23159;SDS011;11748;50.844;4.396;2024-03-17T07:44:36;5.63;;;3.80;;
23159;SDS011;11748;50.844;4.396;2024-03-17T07:47:05;8.02;;;3.95;;
23159;SDS011;11748;50.844;4.396;2024-03-17T07:49:31;5.38;;;3.42;;
23159;SDS011;11748;50.844;4.396;2024-03-17T07:51:57;6.03;;;3.42;;
23159;SDS011;11748;50.844;4.396;2024-03-17T07:54:26;7.03;;;3.08;;
23159;SDS011;11748;50.844;4.396;2024-03-17T07:56:51;5.45;;;3.13;;
23159;SDS011;11748;50.844;4.396;2024-03-17T07:59:17;5.78;;;3.88;;
23159;SDS011;11748;50.844;4.396;2024-03-17T08:01:43;4.93;;;3.10;;
23159;SDS011;11748;50.844;4.396;2024-03-17T08:04:10;6.93;;;3.60;;
23159;SDS011;11748;50.844;4.396;2024-03-17T08:06:37;6.22;;;3.47;;
23159;SDS011;11748;50.844;4.396;2024-03-17T08:09:09;4.68;;;3.03;;
23159;SDS011;11748;50.844;4.396;2024-03-17T08:11:35;7.53;;;3.20;;
23159;SDS011;11748;50.844;4.396;2024-03-17T08:14:01;7.13;;;2.97;;
23159;SDS011;11748;50.844;4.396;2024-03-17T08:16:27;5.95;;;3.58;;
23159;SDS011;11748;50.844;4.396;2024-03-17T08:18:54;4.95;;;3.20;;
23159;SDS011;11748;50.844;4.396;2024-03-17T08:21:20;6.90;;;3.22;;
23159;SDS011;11748;50.844;4.396;2024-03-17T08:23:46;8.48;;;3.10;;
23159;SDS011;11748;50.844;4.396;2024-03-17T08:26:12;5.50;;;2.80;;
23159;SDS011;11748;50.844;4.396;2024-03-17T08:28:38;6.32;;;3.30;;
23159;SDS011;11748;50.844;4.396;2024-03-17T08:31:04;6.45;;;2.75;;
23159;SDS011;11748;50.844;4.396;2024-03-17T08:33:30;7.97;;;3.38;;
23159;SDS011;11748;50.844;4.396;2024-03-17T08:36:00;5.10;;;2.55;;
23159;SDS011;11748;50.844;4.396;2024-03-17T08:38:27;4.75;;;3.17;;
23159;SDS011;11748;50.844;4.396;2024-03-17T08:40:55;4.13;;;2.53;;
23159;SDS011;11748;50.844;4.396;2024-03-17T08:43:21;4.68;;;3.17;;
23159;SDS011;11748;50.844;4.396;2024-03-17T08:45:58;6.63;;;3.17;;
23159;SDS011;11748;50.844;4.396;2024-03-17T08:48:27;4.38;;;3.05;;
23159;SDS011;11748;50.844;4.396;2024-03-17T08:50:56;5.68;;;2.78;;
23159;SDS011;11748;50.844;4.396;2024-03-17T08:53:23;4.15;;;3.53;;
23159;SDS011;11748;50.844;4.396;2024-03-17T08:55:49;6.47;;;2.80;;
23159;SDS011;11748;50.844;4.396;2024-03-17T08:58:15;6.97;;;2.75;;
23159;SDS011;11748;50.844;4.396;2024-03-17T09:00:41;5.63;;;2.67;;
23159;SDS011;11748;50.844;4.396;2024-03-17T09:03:09;8.88;;;3.20;;
23159;SDS011;11748;50.844;4.396;2024-03-17T09:05:38;6.78;;;2.90;;
23159;SDS011;11748;50.844;4.396;2024-03-17T09:08:07;5.07;;;2.70;;
23159;SDS011;11748;50.844;4.396;2024-03-17T09:10:43;5.45;;;3.10;;
23159;SDS011;11748;50.844;4.396;2024-03-17T09:13:12;6.28;;;2.75;;
23159;SDS011;11748;50.844;4.396;2024-03-17T09:18:22;6.47;;;3.00;;
23159;SDS011;11748;50.844;4.396;2024-03-17T09:23:27;7.35;;;3.20;;
23159;SDS011;11748;50.844;4.396;2024-03-17T09:26:00;5.55;;;2.97;;
23159;SDS011;11748;50.844;4.396;2024-03-17T09:28:30;6.00;;;3.05;;
23159;SDS011;11748;50.844;4.396;2024-03-17T09:30:57;8.32;;;2.90;;
23159;SDS011;11748;50.844;4.396;2024-03-17T09:33:23;5.18;;;3.20;;
23159;SDS011;11748;50.844;4.396;2024-03-17T09:35:57;6.38;;;2.90;;
23159;SDS011;11748;50.844;4.396;2024-03-17T09:38:25;6.93;;;3.08;;
23159;SDS011;11748;50.844;4.396;2024-03-17T09:40:51;8.93;;;3.10;;
23159;SDS011;11748;50.844;4.396;2024-03-17T09:43:21;4.72;;;3.33;;
23159;SDS011;11748;50.844;4.396;2024-03-17T09:45:49;8.68;;;3.65;;
23159;SDS011;11748;50.844;4.396;2024-03-17T09:48:16;10.30;;;3.30;;
23159;SDS011;11748;50.844;4.396;2024-03-17T09:50:55;6.30;;;3.22;;
23159;SDS011;11748;50.844;4.396;2024-03-17T09:53:26;5.15;;;3.28;;
23159;SDS011;11748;50.844;4.396;2024-03-17T09:55:58;5.60;;;2.78;;
23159;SDS011;11748;50.844;4.396;2024-03-17T09:58:28;10.98;;;3.47;;
23159;SDS011;11748;50.844;4.396;2024-03-17T10:00:53;6.32;;;2.97;;
23159;SDS011;11748;50.844;4.396;2024-03-17T10:06:26;6.93;;;2.92;;
23159;SDS011;11748;50.844;4.396;2024-03-17T10:08:58;5.05;;;2.72;;
23159;SDS011;11748;50.844;4.396;2024-03-17T10:11:32;7.18;;;3.40;;
23159;SDS011;11748;50.844;4.396;2024-03-17T10:16:27;8.20;;;2.67;;
23159;SDS011;11748;50.844;4.396;2024-03-17T10:19:11;7.50;;;2.90;;
23159;SDS011;11748;50.844;4.396;2024-03-17T10:21:58;4.35;;;2.72;;
23159;SDS011;11748;50.844;4.396;2024-03-17T10:24:26;8.30;;;3.30;;
23159;SDS011;11748;50.844;4.396;2024-03-17T10:26:56;7.18;;;3.05;;
23159;SDS011;11748;50.844;4.396;2024-03-17T10:31:56;5.68;;;2.53;;
23159;SDS011;11748;50.844;4.396;2024-03-17T10:34:23;9.15;;;2.90;;
23159;SDS011;11748;50.844;4.396;2024-03-17T10:39:46;7.10;;;2.78;;
23159;SDS011;11748;50.844;4.396;2024-03-17T10:42:14;6.72;;;2.90;;
23159;SDS011;11748;50.844;4.396;2024-03-17T10:44:53;8.10;;;2.78;;
23159;SDS011;11748;50.844;4.396;2024-03-17T10:47:24;6.13;;;2.97;;
23159;SDS011;11748;50.844;4.396;2024-03-17T10:49:51;8.10;;;2.72;;
23159;SDS011;11748;50.844;4.396;2024-03-17T10:52:19;7.43;;;2.88;;
23159;SDS011;11748;50.844;4.396;2024-03-17T10:54:51;6.10;;;2.20;;
23159;SDS011;11748;50.844;4.396;2024-03-17T10:57:31;7.05;;;2.58;;
23159;SDS011;11748;50.844;4.396;2024-03-17T10:59:59;3.90;;;2.30;;
23159;SDS011;11748;50.844;4.396;2024-03-17T11:02:28;6.88;;;2.75;;
23159;SDS011;11748;50.844;4.396;2024-03-17T11:04:58;7.13;;;2.53;;
23159;SDS011;11748;50.844;4.396;2024-03-17T11:07:25;9.02;;;2.58;;
23159;SDS011;11748;50.844;4.396;2024-03-17T11:09:52;3.35;;;1.95;;
23159;SDS011;11748;50.844;4.396;2024-03-17T11:17:55;6.07;;;2.22;;
23159;SDS011;11748;50.844;4.396;2024-03-17T11:20:55;6.40;;;2.38;;
23159;SDS011;11748;50.844;4.396;2024-03-17T11:23:32;5.07;;;2.55;;
23159;SDS011;11748;50.844;4.396;2024-03-17T11:25:59;5.00;;;2.33;;
23159;SDS011;11748;50.844;4.396;2024-03-17T11:34:03;5.47;;;2.13;;
23159;SDS011;11748;50.844;4.396;2024-03-17T11:36:33;7.57;;;2.20;;
23159;SDS011;11748;50.844;4.396;2024-03-17T11:41:52;3.28;;;1.80;;
23159;SDS011;11748;50.844;4.396;2024-03-17T11:46:53;4.97;;;1.90;;
23159;SDS011;11748;50.844;4.396;2024-03-17T11:49:30;8.50;;;2.13;;
23159;SDS011;11748;50.844;4.396;2024-03-17T11:52:13;5.47;;;2.17;;
23159;SDS011;11748;50.844;4.396;2024-03-17T11:54:41;6.88;;;2.10;;
23159;SDS011;11748;50.844;4.396;2024-03-17T11:57:12;5.68;;;1.40;;
23159;SDS011;11748;50.844;4.396;2024-03-17T11:59:49;7.07;;;1.90;;
23159;SDS011;11748;50.844;4.396;2024-03-17T12:04:52;3.70;;;1.33;;
23159;SDS011;11748;50.844;4.396;2024-03-17T12:07:20;5.25;;;1.60;;
23159;SDS011;11748;50.844;4.396;2024-03-17T12:09:48;4.20;;;1.48;;
23159;SDS011;11748;50.844;4.396;2024-03-17T12:12:18;8.98;;;2.08;;
23159;SDS011;11748;50.844;4.396;2024-03-17T12:14:48;8.95;;;2.22;;
23159;SDS011;11748;50.844;4.396;2024-03-17T12:17:20;4.78;;;1.73;;
23159;SDS011;11748;50.844;4.396;2024-03-17T12:22:22;4.93;;;2.00;;
23159;SDS011;11748;50.844;4.396;2024-03-17T12:24:50;8.07;;;2.43;;
23159;SDS011;11748;50.844;4.396;2024-03-17T12:27:22;6.40;;;2.50;;
23159;SDS011;11748;50.844;4.396;2024-03-17T12:29:50;8.63;;;2.38;;
23159;SDS011;11748;50.844;4.396;2024-03-17T12:32:23;8.38;;;2.17;;
23159;SDS011;11748;50.844;4.396;2024-03-17T12:34:54;3.40;;;1.25;;
23159;SDS011;11748;50.844;4.396;2024-03-17T12:37:25;2.88;;;1.58;;
23159;SDS011;11748;50.844;4.396;2024-03-17T12:39:58;4.03;;;1.10;;
23159;SDS011;11748;50.844;4.396;2024-03-17T12:42:25;3.75;;;1.33;;
23159;SDS011;11748;50.844;4.396;2024-03-17T12:44:54;6.05;;;1.52;;
23159;SDS011;11748;50.844;4.396;2024-03-17T12:47:24;8.40;;;1.85;;
23159;SDS011;11748;50.844;4.396;2024-03-17T12:49:57;5.72;;;2.00;;
23159;SDS011;11748;50.844;4.396;2024-03-17T12:55:04;3.13;;;1.58;;
23159;SDS011;11748;50.844;4.396;2024-03-17T13:00:56;5.43;;;1.20;;
23159;SDS011;11748;50.844;4.396;2024-03-17T13:03:38;4.63;;;1.33;;
23159;SDS011;11748;50.844;4.396;2024-03-17T13:06:05;4.53;;;1.20;;
23159;SDS011;11748;50.844;4.396;2024-03-17T13:08:36;4.70;;;1.10;;
23159;SDS011;11748;50.844;4.396;2024-03-17T13:11:02;5.68;;;0.98;;
23159;SDS011;11748;50.844;4.396;2024-03-17T13:13:30;4.35;;;1.08;;
23159;SDS011;11748;50.844;4.396;2024-03-17T13:15:56;4.70;;;1.00;;
23159;SDS011;11748;50.844;4.396;2024-03-17T13:18:23;5.07;;;1.17;;
23159;SDS011;11748;50.844;4.396;2024-03-17T13:20:49;5.40;;;1.30;;
23159;SDS011;11748;50.844;4.396;2024-03-17T13:23:15;6.57;;;1.35;;
23159;SDS011;11748;50.844;4.396;2024-03-17T13:25:41;4.25;;;1.60;;
23159;SDS011;11748;50.844;4.396;2024-03-17T13:28:08;4.95;;;1.13;;
23159;SDS011;11748;50.844;4.396;2024-03-17T13:30:35;5.20;;;1.25;;
23159;SDS011;11748;50.844;4.396;2024-03-17T13:33:04;7.35;;;1.83;;
23159;SDS011;11748;50.844;4.396;2024-03-17T13:35:33;7.10;;;1.60;;
23159;SDS011;11748;50.844;4.396;2024-03-17T13:38:04;6.32;;;1.75;;
23159;SDS011;11748;50.844;4.396;2024-03-17T13:40:37;4.13;;;1.60;;
23159;SDS011;11748;50.844;4.396;2024-03-17T13:43:04;3.78;;;1.08;;
23159;SDS011;11748;50.844;4.396;2024-03-17T13:45:40;2.72;;;1.00;;
23159;SDS011;11748;50.844;4.396;2024-03-17T13:48:07;5.97;;;1.30;;
23159;SDS011;11748;50.844;4.396;2024-03-17T13:50:37;5.07;;;1.70;;
23159;SDS011;11748;50.844;4.396;2024-03-17T13:53:04;5.43;;;1.48;;
23159;SDS011;11748;50.844;4.396;2024-03-17T13:55:29;4.25;;;1.50;;
23159;SDS011;11748;50.844;4.396;2024-03-17T13:57:56;3.67;;;1.30;;
23159;SDS011;11748;50.844;4.396;2024-03-17T14:00:26;5.80;;;1.15;;
23159;SDS011;11748;50.844;4.396;2024-03-17T14:02:54;4.78;;;1.60;;
23159;SDS011;11748;50.844;4.396;2024-03-17T14:05:27;6.40;;;1.30;;
23159;SDS011;11748;50.844;4.396;2024-03-17T14:07:53;3.22;;;1.10;;
23159;SDS011;11748;50.844;4.396;2024-03-17T14:10:20;6.47;;;1.40;;
23159;SDS011;11748;50.844;4.396;2024-03-17T14:12:48;9.57;;;1.65;;
23159;SDS011;11748;50.844;4.396;2024-03-17T14:15:14;5.55;;;1.20;;
23159;SDS011;11748;50.844;4.396;2024-03-17T14:17:41;3.95;;;1.23;;
23159;SDS011;11748;50.844;4.396;2024-03-17T14:20:08;4.40;;;1.33;;
23159;SDS011;11748;50.844;4.396;2024-03-17T14:22:38;8.50;;;1.38;;
23159;SDS011;11748;50.844;4.396;2024-03-17T14:25:05;5.43;;;1.77;;
23159;SDS011;11748;50.844;4.396;2024-03-17T14:27:32;3.80;;;1.20;;
23159;SDS011;11748;50.844;4.396;2024-03-17T14:29:58;8.07;;;1.90;;
23159;SDS011;11748;50.844;4.396;2024-03-17T14:32:24;8.45;;;1.63;;
23159;SDS011;11748;50.844;4.396;2024-03-17T14:34:50;9.27;;;2.00;;
23159;SDS011;11748;50.844;4.396;2024-03-17T14:37:15;4.97;;;1.63;;
23159;SDS011;11748;50.844;4.396;2024-03-17T14:39:41;5.35;;;1.50;;
23159;SDS011;11748;50.844;4.396;2024-03-17T14:42:07;5.03;;;1.40;;
23159;SDS011;11748;50.844;4.396;2024-03-17T14:44:34;2.55;;;1.35;;
23159;SDS011;11748;50.844;4.396;2024-03-17T14:47:02;4.25;;;1.20;;
23159;SDS011;11748;50.844;4.396;2024-03-17T14:49:32;4.47;;;1.30;;
23159;SDS011;11748;50.844;4.396;2024-03-17T14:51:59;5.10;;;1.55;;
23159;SDS011;11748;50.844;4.396;2024-03-17T14:54:25;5.38;;;1.63;;
23159;SDS011;11748;50.844;4.396;2024-03-17T14:56:51;7.13;;;1.40;;
23159;SDS011;11748;50.844;4.396;2024-03-17T14:59:18;3.97;;;1.40;;
23159;SDS011;11748;50.844;4.396;2024-03-17T15:01:47;7.03;;;2.10;;
23159;SDS011;11748;50.844;4.396;2024-03-17T15:04:13;4.82;;;1.17;;
23159;SDS011;11748;50.844;4.396;2024-03-17T15:06:40;4.28;;;1.40;;
23159;SDS011;11748;50.844;4.396;2024-03-17T15:09:08;4.88;;;1.63;;
23159;SDS011;11748;50.844;4.396;2024-03-17T15:11:34;6.00;;;1.70;;
23159;SDS011;11748;50.844;4.396;2024-03-17T15:14:00;3.28;;;1.27;;
23159;SDS011;11748;50.844;4.396;2024-03-17T15:16:26;2.83;;;1.00;;
23159;SDS011;11748;50.844;4.396;2024-03-17T15:18:51;4.53;;;1.40;;
23159;SDS011;11748;50.844;4.396;2024-03-17T15:21:17;5.53;;;1.58;;
23159;SDS011;11748;50.844;4.396;2024-03-17T15:23:42;8.02;;;3.33;;
23159;SDS011;11748;50.844;4.396;2024-03-17T15:26:09;4.65;;;1.45;;
23159;SDS011;11748;50.844;4.396;2024-03-17T15:28:36;3.70;;;1.30;;
23159;SDS011;11748;50.844;4.396;2024-03-17T15:31:06;4.35;;;1.38;;
23159;SDS011;11748;50.844;4.396;2024-03-17T15:33:32;4.13;;;1.30;;
23159;SDS011;11748;50.844;4.396;2024-03-17T15:36:05;2.50;;;1.27;;
23159;SDS011;11748;50.844;4.396;2024-03-17T15:38:33;5.32;;;2.13;;